Terminal Aerodrome Forecast
Issued by NWS Cleveland, OH

Home | Current Version | Previous Version | Text Only | Print | Product List | Glossary On
Versions: 1 2 3 4 5 6 7 8 9 10 11 12 13 14
000
FTUS41 KCLE 291730
TAFMFD
TAF
KMFD 291730Z 2918/3018 18007KT P6SM VCSH SCT050 BKN080
     FM292300 17005KT P6SM VCTS BKN040CB OVC100
     FM300700 17003KT 4SM BR VCSH BKN040 OVC080
     FM301500 22005KT 6SM HZ VCSH BKN040=

USA.gov is the U.S. government's official web portal to all federal, state and local government web resources and services.